Mount Pleasant Airport
EGYP : rendu visible

Aérodrome :











RETROUVEZ-NOUS SUR...

 
LOGIN :

S'inscrire | Disclaimer

   EN    FR    IT 

 









Légende :    VFR   VFR Marginal   IFR   IFR Intensif   IFR Très Intensif
Visi : 
Plafond : 
>= 8 km
>= 3000ft
5 à 8 km
1000 à 3000 ft
1500m à 5 km
500 à 1000 ft
800 à 1500m
200 à 500 ft
< 800m
< 200 ft
Symboles :   Orages  Brouillard  Fortes neiges  Fortes précipitations  Vent > 20 kt






- Altitude de l'aérodrome : 244 ft
- Code IATA : MPN


EGYP - Mount Pleasant

DERNIER METAR :
  • 011950Z 33022KT 9999 SCT013 BKN160 BKN200 08/06 Q1000

METARs EXPIRÉS :
  • 011850Z 31015G26KT 9999 FEW013 BKN160 08/05 Q1001
  • 011750Z 32015KT 9999 FEW007 BKN170 08/05 Q1002
  • 011650Z 33021KT 9999 FEW008 BKN170 BKN250 08/05 Q1003

TAF TAF EGYP
Valide du 01 à 18h jusqu'au 02 à 12h UTC


011613Z 0118/0212 33020G30KT 9999 FEW012 520003
PROB40
TEMPO 0118/0123 33030G40KT 530003
PROB30
TEMPO 0118/0203 VRB08KT SCT008 560003
BECMG 0202/0205 29015G25KT 50////
PROB40
TEMPO 0203/0211 SCT010
BECMG 0206/0209 24015G25KT
BECMG 0209/0212 27015KT



MET'MAP, la Météo Aéronautique d'un coup d'oeil ! - Copyright ORBIFLY Décembre 2007 - Disclaimer

ORBIFLY MET'MAP TEAM :

Programmation & Développement : Alexandra Zaïnal
Sur une idée originale de : Baudouin d'Aumeries
Assistance à la programmation : Marc-Olivier Méhu
Soutien technique & logistique : Manuel Goepfert

Contact : metmap@orbifly.com




SOURCES & CREDITS :

   NOAA       Earth
Advisory